createdAt,value
2023-02-26T00:01:47.511Z,86.60
2023-02-26T00:04:15.825Z,86.69
2023-02-26T00:06:54.422Z,86.82
2023-02-26T00:09:25.182Z,86.98
2023-02-26T00:11:54.266Z,87.14
2023-02-26T00:14:24.037Z,87.18
2023-02-26T00:17:29.186Z,87.21
2023-02-26T00:19:57.520Z,86.94
2023-02-26T00:22:25.855Z,86.97
2023-02-26T00:24:53.950Z,86.72
2023-02-26T00:27:22.101Z,86.40
2023-02-26T00:29:50.893Z,86.59
2023-02-26T00:32:19.472Z,86.79
2023-02-26T00:34:49.302Z,86.90
2023-02-26T00:37:29.181Z,86.99
2023-02-26T00:40:10.874Z,87.32
2023-02-26T00:42:40.152Z,87.61
2023-02-26T00:45:09.731Z,87.81
2023-02-26T00:47:56.248Z,87.75
2023-02-26T00:50:26.768Z,87.52
2023-02-26T00:53:00.934Z,87.21
2023-02-26T00:55:29.615Z,87.10
2023-02-26T00:57:58.081Z,87.15
2023-02-26T01:00:27.534Z,87.55
2023-02-26T01:02:55.720Z,87.57
2023-02-26T01:05:24.057Z,87.33
2023-02-26T01:08:10.405Z,87.02
2023-02-26T01:10:39.264Z,86.99
2023-02-26T01:13:08.450Z,86.62
2023-02-26T01:15:37.173Z,86.28
2023-02-26T01:18:09.900Z,86.17
2023-02-26T01:20:48.347Z,86.10
2023-02-26T01:23:24.350Z,86.14
2023-02-26T01:26:15.338Z,86.10
2023-02-26T01:28:44.295Z,86.21
2023-02-26T01:31:31.267Z,86.27
2023-02-26T01:34:07.551Z,86.47
2023-02-26T01:36:43.837Z,86.46
2023-02-26T01:39:31.148Z,86.44
2023-02-26T01:42:15.791Z,86.36
2023-02-26T01:45:17.284Z,86.58
2023-02-26T01:48:04.938Z,86.84
2023-02-26T01:50:36.366Z,87.22
2023-02-26T01:53:26.750Z,87.28
2023-02-26T01:56:20.014Z,87.59
2023-02-26T01:58:50.212Z,87.71
2023-02-26T02:01:18.496Z,87.97
2023-02-26T02:03:46.676Z,88.02
2023-02-26T02:06:19.854Z,88.36
2023-02-26T02:08:48.160Z,88.38
2023-02-26T02:11:16.380Z,88.32
2023-02-26T02:14:18.892Z,88.57
2023-02-26T02:17:00.978Z,88.78
2023-02-26T02:19:39.736Z,89.07
2023-02-26T02:22:15.997Z,89.23
2023-02-26T02:24:57.966Z,89.47
2023-02-26T02:27:55.134Z,89.37
2023-02-26T02:31:02.915Z,89.49
2023-02-26T02:33:36.625Z,89.53
2023-02-26T02:36:13.289Z,89.39
2023-02-26T02:39:05.673Z,89.49
2023-02-26T02:41:42.682Z,89.58
2023-02-26T02:44:15.824Z,89.89
2023-02-26T02:46:48.135Z,90.10
2023-02-26T02:49:24.211Z,90.17
2023-02-26T02:51:57.705Z,90.39
2023-02-26T02:54:35.670Z,90.58
2023-02-26T02:57:19.501Z,90.48
2023-02-26T02:59:52.112Z,90.63
2023-02-26T03:02:29.169Z,90.69
2023-02-26T03:04:57.419Z,90.56
2023-02-26T03:07:25.804Z,90.61
2023-02-26T03:09:55.316Z,90.93
2023-02-26T03:12:26.705Z,90.92
2023-02-26T03:14:54.800Z,91.01
2023-02-26T03:17:47.028Z,91.05
2023-02-26T03:20:21.258Z,91.15
2023-02-26T03:23:12.007Z,91.26
2023-02-26T03:26:00.813Z,91.35
2023-02-26T03:28:31.807Z,91.10
2023-02-26T03:31:13.577Z,91.19
2023-02-26T03:34:00.527Z,91.33
2023-02-26T03:36:38.062Z,91.57
2023-02-26T03:39:30.273Z,91.35
2023-02-26T03:42:08.094Z,91.25
2023-02-26T03:44:56.412Z,91.32
2023-02-26T03:47:25.560Z,91.39
2023-02-26T03:49:58.388Z,91.67
2023-02-26T03:52:31.871Z,91.78
2023-02-26T03:55:16.226Z,91.92
2023-02-26T03:57:56.989Z,92.20
2023-02-26T04:00:33.807Z,92.10
2023-02-26T04:03:14.935Z,92.32
2023-02-26T04:05:48.861Z,92.52
2023-02-26T04:08:17.960Z,92.50
2023-02-26T04:10:55.931Z,92.31
2023-02-26T04:13:25.257Z,92.41
2023-02-26T04:15:53.658Z,92.51
2023-02-26T04:18:22.048Z,92.60
2023-02-26T04:20:50.192Z,92.89
2023-02-26T04:23:19.814Z,93.14
2023-02-26T04:25:47.911Z,93.23
2023-02-26T04:28:17.731Z,93.64
2023-02-26T04:30:46.534Z,93.73
2023-02-26T04:33:16.282Z,93.74
2023-02-26T04:35:44.938Z,93.88
2023-02-26T04:38:13.072Z,93.93
2023-02-26T04:40:41.368Z,94.15
2023-02-26T04:43:11.258Z,94.32
2023-02-26T04:45:48.895Z,94.39
2023-02-26T04:48:17.909Z,94.46
2023-02-26T04:50:46.673Z,94.59
2023-02-26T04:53:15.016Z,94.57
2023-02-26T04:55:43.300Z,94.44
2023-02-26T04:58:11.383Z,94.85
2023-02-26T05:00:40.293Z,94.81
2023-02-26T05:03:10.465Z,94.89
2023-02-26T05:05:38.574Z,95.14
2023-02-26T05:08:08.006Z,95.13
2023-02-26T05:10:36.610Z,95.17
2023-02-26T05:13:05.933Z,95.20
2023-02-26T05:15:34.542Z,95.22
2023-02-26T05:18:02.613Z,95.47
2023-02-26T05:20:30.883Z,96.04
2023-02-26T05:23:00.167Z,96.14
2023-02-26T05:25:28.460Z,96.18
2023-02-26T05:27:56.741Z,96.20
2023-02-26T05:30:25.601Z,96.13
2023-02-26T05:32:54.987Z,96.34
2023-02-26T05:35:23.008Z,96.45
2023-02-26T05:37:51.014Z,96.44
2023-02-26T05:40:19.161Z,96.30
2023-02-26T05:42:47.426Z,96.19
2023-02-26T05:45:15.916Z,96.18
2023-02-26T05:47:44.770Z,96.12
2023-02-26T05:50:13.500Z,96.29
2023-02-26T05:52:41.754Z,96.19
2023-02-26T05:55:10.148Z,96.04
2023-02-26T05:57:38.489Z,95.97
2023-02-26T06:00:08.401Z,95.79
2023-02-26T06:02:42.620Z,95.74
2023-02-26T06:05:11.508Z,95.59
2023-02-26T06:07:40.024Z,95.54
2023-02-26T06:10:09.489Z,95.52
2023-02-26T06:12:38.503Z,95.43
2023-02-26T06:15:08.077Z,95.55
2023-02-26T06:17:40.327Z,95.45
2023-02-26T06:20:10.729Z,95.41
2023-02-26T06:22:39.311Z,95.47
2023-02-26T06:25:07.868Z,95.38
2023-02-26T06:27:36.541Z,95.14
2023-02-26T06:30:05.374Z,95.39
2023-02-26T06:32:33.993Z,95.14
2023-02-26T06:35:02.729Z,94.99
2023-02-26T06:37:30.805Z,95.08
2023-02-26T06:39:59.004Z,95.25
2023-02-26T06:42:27.179Z,95.34
2023-02-26T06:44:57.184Z,95.29
2023-02-26T06:47:25.314Z,95.34
2023-02-26T06:49:53.424Z,95.23
2023-02-26T06:52:22.108Z,95.21
2023-02-26T06:54:50.353Z,95.37
2023-02-26T06:57:18.650Z,95.29
2023-02-26T06:59:46.763Z,95.49
2023-02-26T07:02:20.446Z,95.46
2023-02-26T07:04:49.215Z,95.69
2023-02-26T07:07:17.771Z,95.93
2023-02-26T07:09:46.359Z,95.96
2023-02-26T07:12:14.596Z,96.03
2023-02-26T07:14:46.766Z,96.23
2023-02-26T07:17:20.951Z,96.27
2023-02-26T07:19:51.740Z,96.42
2023-02-26T07:22:22.012Z,96.56
2023-02-26T07:24:51.481Z,96.62
2023-02-26T07:27:19.718Z,96.62
2023-02-26T07:29:47.823Z,96.50
2023-02-26T07:32:17.951Z,96.41
2023-02-26T07:34:45.949Z,96.57
2023-02-26T07:37:14.207Z,96.45
2023-02-26T07:39:42.592Z,96.45
2023-02-26T07:42:10.861Z,96.59
2023-02-26T07:44:40.923Z,96.71
2023-02-26T07:47:09.929Z,96.72
2023-02-26T07:49:38.027Z,96.57
2023-02-26T07:52:10.089Z,96.73
2023-02-26T07:54:38.188Z,96.79
2023-02-26T07:57:06.198Z,97.08
2023-02-26T07:59:34.342Z,97.51
2023-02-26T08:02:02.331Z,97.24
2023-02-26T08:04:33.101Z,97.20
2023-02-26T08:07:01.748Z,96.94
2023-02-26T08:09:30.792Z,97.15
2023-02-26T08:11:58.969Z,96.90
2023-02-26T08:14:27.103Z,96.85
2023-02-26T08:16:55.191Z,96.82
2023-02-26T08:19:23.287Z,96.36
2023-02-26T08:21:51.758Z,96.89
2023-02-26T08:24:19.773Z,96.88
2023-02-26T08:26:48.189Z,96.46
2023-02-26T08:29:16.266Z,96.13
2023-02-26T08:31:44.380Z,95.53
2023-02-26T08:34:14.235Z,95.38
2023-02-26T08:36:42.303Z,95.04
2023-02-26T08:39:10.288Z,94.73
2023-02-26T08:41:38.663Z,94.21
2023-02-26T08:44:07.290Z,94.02
2023-02-26T08:46:35.745Z,94.20
2023-02-26T08:49:03.893Z,94.37
2023-02-26T08:51:31.829Z,94.64
2023-02-26T08:53:59.840Z,94.25
2023-02-26T08:56:28.293Z,93.86
2023-02-26T08:58:56.514Z,93.73
2023-02-26T09:01:25.002Z,93.50
2023-02-26T09:03:53.367Z,93.19
2023-02-26T09:06:21.436Z,92.84
2023-02-26T09:08:49.483Z,92.69
2023-02-26T09:11:17.600Z,93.02
2023-02-26T09:13:45.829Z,93.45
2023-02-26T09:16:13.876Z,93.79
2023-02-26T09:18:42.098Z,93.75
2023-02-26T09:21:10.094Z,94.06
2023-02-26T09:23:38.758Z,94.11
2023-02-26T09:26:09.578Z,93.95
2023-02-26T09:28:37.599Z,94.11
2023-02-26T09:31:07.632Z,93.96
2023-02-26T09:33:36.702Z,93.88
2023-02-26T09:36:05.197Z,94.04
2023-02-26T09:38:33.578Z,94.33
2023-02-26T09:41:07.223Z,94.50
2023-02-26T09:43:44.258Z,94.51
2023-02-26T09:46:34.166Z,94.35
2023-02-26T09:49:41.489Z,94.01
2023-02-26T09:52:32.727Z,93.90
2023-02-26T09:55:09.785Z,94.15
2023-02-26T09:57:42.745Z,94.49
2023-02-26T10:00:18.014Z,94.56
2023-02-26T10:02:52.192Z,94.61
2023-02-26T10:06:11.246Z,94.60
2023-02-26T10:08:56.646Z,94.69
2023-02-26T10:12:01.944Z,94.65
2023-02-26T10:14:49.005Z,94.38
2023-02-26T10:17:32.422Z,94.42
2023-02-26T10:20:06.726Z,94.56
2023-02-26T10:22:40.226Z,94.52
2023-02-26T10:25:14.801Z,94.80
2023-02-26T10:27:43.437Z,94.85
2023-02-26T10:30:25.369Z,94.86
2023-02-26T10:33:14.223Z,94.42
2023-02-26T10:35:53.766Z,94.42
2023-02-26T10:38:28.618Z,94.77
2023-02-26T10:41:05.260Z,94.64
2023-02-26T10:43:41.599Z,94.45
2023-02-26T10:46:19.575Z,94.74
2023-02-26T10:49:14.705Z,94.34
2023-02-26T10:51:43.142Z,94.01
2023-02-26T10:54:28.008Z,93.80
2023-02-26T10:56:56.065Z,94.02
2023-02-26T10:59:24.317Z,94.19
2023-02-26T11:01:53.429Z,94.27
2023-02-26T11:04:23.958Z,94.63
2023-02-26T11:07:05.296Z,94.56
2023-02-26T11:09:37.919Z,94.46
2023-02-26T11:12:13.932Z,93.98
2023-02-26T11:14:47.864Z,93.99
2023-02-26T11:17:32.352Z,94.48
2023-02-26T11:20:15.185Z,94.51
2023-02-26T11:22:52.435Z,94.93
2023-02-26T11:25:25.498Z,94.85
2023-02-26T11:28:04.387Z,94.70
2023-02-26T11:30:38.961Z,94.78
2023-02-26T11:33:17.445Z,94.89
2023-02-26T11:35:47.231Z,95.12
2023-02-26T11:38:20.495Z,94.75
2023-02-26T11:40:54.083Z,94.74
2023-02-26T11:43:25.219Z,94.83
2023-02-26T11:46:00.932Z,95.28
2023-02-26T11:48:37.070Z,95.64
2023-02-26T11:51:07.310Z,95.33
2023-02-26T11:53:41.766Z,95.24
2023-02-26T11:56:14.143Z,95.38
2023-02-26T11:58:46.467Z,95.44
2023-02-26T12:01:17.279Z,95.34
2023-02-26T12:03:49.172Z,95.71
2023-02-26T12:06:20.297Z,95.68
2023-02-26T12:08:48.786Z,95.52
2023-02-26T12:11:36.835Z,95.66
2023-02-26T12:14:26.865Z,95.61
2023-02-26T12:17:12.836Z,95.78
2023-02-26T12:19:46.229Z,95.92
2023-02-26T12:22:17.230Z,95.89
2023-02-26T12:25:21.920Z,95.85
2023-02-26T12:28:18.639Z,95.89
2023-02-26T12:31:17.461Z,96.09
2023-02-26T12:33:55.287Z,96.16
2023-02-26T12:36:49.000Z,96.57
2023-02-26T12:39:41.480Z,96.61
2023-02-26T12:42:34.745Z,96.55
2023-02-26T12:45:16.707Z,96.52
2023-02-26T12:48:00.011Z,96.82
2023-02-26T12:51:07.337Z,97.23
2023-02-26T12:53:53.623Z,97.27
2023-02-26T12:56:42.572Z,97.18
2023-02-26T12:59:26.114Z,96.97
2023-02-26T13:02:01.601Z,97.05
2023-02-26T13:05:04.204Z,97.49
2023-02-26T13:07:50.515Z,97.48
2023-02-26T13:10:29.870Z,97.26
2023-02-26T13:12:57.786Z,97.25
2023-02-26T13:15:58.488Z,97.29
2023-02-26T13:18:38.479Z,97.12
2023-02-26T13:21:11.655Z,97.20
2023-02-26T13:23:50.146Z,97.17
2023-02-26T13:26:19.694Z,97.21
2023-02-26T13:28:54.818Z,97.14
2023-02-26T13:31:27.542Z,97.20
2023-02-26T13:34:01.500Z,97.33
2023-02-26T13:36:29.776Z,97.46
2023-02-26T13:39:26.782Z,97.50
2023-02-26T13:42:15.060Z,97.43
2023-02-26T13:44:58.425Z,97.24
2023-02-26T13:47:55.257Z,97.32
2023-02-26T13:50:53.655Z,97.52
2023-02-26T13:53:25.020Z,97.62
2023-02-26T13:55:54.438Z,97.57
2023-02-26T13:58:22.615Z,97.47
2023-02-26T14:01:09.117Z,97.80
2023-02-26T14:04:16.148Z,97.96
2023-02-26T14:06:49.439Z,98.04
2023-02-26T14:09:26.629Z,98.11
2023-02-26T14:12:43.953Z,98.03
2023-02-26T14:15:11.950Z,98.16
2023-02-26T14:17:49.089Z,98.02
2023-02-26T14:20:31.028Z,98.08
2023-02-26T14:23:09.751Z,98.12
2023-02-26T14:25:48.718Z,98.31
2023-02-26T14:28:28.623Z,98.44
2023-02-26T14:31:06.008Z,98.29
2023-02-26T14:34:00.450Z,98.37
2023-02-26T14:36:51.898Z,98.47
2023-02-26T14:39:37.376Z,98.45
2023-02-26T14:42:34.026Z,98.61
2023-02-26T14:45:30.417Z,98.62
2023-02-26T14:48:02.064Z,98.86
2023-02-26T14:50:40.873Z,98.94
2023-02-26T14:54:01.803Z,98.93
2023-02-26T14:56:53.638Z,98.96
2023-02-26T15:00:12.315Z,99.20
2023-02-26T15:03:02.090Z,99.50
2023-02-26T15:05:42.253Z,99.55
2023-02-26T15:08:10.497Z,99.35
2023-02-26T15:11:20.282Z,99.30
2023-02-26T15:14:28.921Z,99.48
2023-02-26T15:17:19.945Z,99.73
2023-02-26T15:20:06.867Z,99.69
2023-02-26T15:22:54.016Z,99.45
2023-02-26T15:25:30.530Z,99.56
2023-02-26T15:27:58.866Z,99.65
2023-02-26T15:30:29.325Z,99.73
2023-02-26T15:33:04.859Z,99.93
2023-02-26T15:35:34.976Z,99.88
2023-02-26T15:38:04.614Z,100.00
2023-02-26T15:40:42.065Z,100.00
2023-02-26T15:43:16.561Z,100.00
2023-02-26T15:45:48.070Z,100.00
2023-02-26T15:48:20.323Z,100.00
2023-02-26T15:50:53.823Z,100.00
2023-02-26T15:53:46.534Z,100.00
2023-02-26T15:56:27.144Z,100.00
2023-02-26T15:59:58.662Z,100.00
2023-02-26T16:02:49.731Z,99.99
2023-02-26T16:05:18.814Z,99.99
2023-02-26T16:07:47.169Z,100.00
2023-02-26T16:10:40.438Z,100.00
2023-02-26T16:13:15.755Z,100.00
2023-02-26T16:15:44.774Z,100.00
2023-02-26T16:18:22.290Z,100.00
2023-02-26T16:20:55.927Z,100.00
2023-02-26T16:23:32.252Z,100.00
2023-02-26T16:26:05.102Z,100.00
2023-02-26T16:28:45.938Z,100.00
2023-02-26T16:31:22.034Z,100.00
2023-02-26T16:33:55.092Z,100.00
2023-02-26T16:36:28.006Z,100.00
2023-02-26T16:39:16.056Z,100.00
2023-02-26T16:41:49.024Z,100.00
2023-02-26T16:44:46.095Z,100.00
2023-02-26T16:47:15.422Z,100.00
2023-02-26T16:49:49.415Z,100.00
2023-02-26T16:52:23.570Z,100.00
2023-02-26T16:55:18.477Z,100.00
2023-02-26T16:57:48.448Z,100.00
2023-02-26T17:00:31.030Z,100.00
2023-02-26T17:03:18.515Z,100.00
2023-02-26T17:05:58.105Z,100.00
2023-02-26T17:08:49.569Z,100.00
2023-02-26T17:11:25.515Z,100.00
2023-02-26T17:14:29.199Z,100.00
2023-02-26T17:16:57.276Z,100.00
2023-02-26T17:19:25.627Z,100.00
2023-02-26T17:21:58.908Z,100.00
2023-02-26T17:24:32.121Z,100.00
2023-02-26T17:27:02.326Z,100.00
2023-02-26T17:29:37.419Z,100.00
2023-02-26T17:32:07.752Z,100.00
2023-02-26T17:34:36.200Z,100.00
2023-02-26T17:37:07.792Z,100.00
2023-02-26T17:39:35.808Z,100.00
2023-02-26T17:42:04.168Z,100.00
2023-02-26T17:44:32.421Z,100.00
2023-02-26T17:47:01.744Z,100.00
2023-02-26T17:49:37.699Z,100.00
2023-02-26T17:52:05.809Z,100.00
2023-02-26T17:54:55.490Z,100.00
2023-02-26T17:58:24.581Z,100.00
2023-02-26T18:01:17.491Z,100.00
2023-02-26T18:03:54.804Z,100.00
2023-02-26T18:07:19.980Z,100.00
2023-02-26T18:10:18.479Z,100.00
2023-02-26T18:12:47.268Z,100.00
2023-02-26T18:15:27.156Z,100.00
2023-02-26T18:17:55.866Z,100.00
2023-02-26T18:20:24.019Z,100.00
2023-02-26T18:22:53.118Z,100.00
2023-02-26T18:25:22.314Z,100.00
2023-02-26T18:28:00.207Z,100.00
2023-02-26T18:30:40.688Z,100.00
2023-02-26T18:33:09.154Z,100.00
2023-02-26T18:35:47.072Z,100.00
2023-02-26T18:38:17.498Z,100.00
2023-02-26T18:40:46.832Z,100.00
2023-02-26T18:43:15.264Z,100.00
2023-02-26T18:45:46.688Z,100.00
2023-02-26T18:48:19.168Z,100.00
2023-02-26T18:50:49.163Z,100.00
2023-02-26T18:53:23.103Z,100.00
2023-02-26T18:55:53.656Z,100.00
2023-02-26T18:58:22.028Z,100.00
2023-02-26T19:00:51.059Z,100.00
2023-02-26T19:03:19.734Z,100.00
2023-02-26T19:05:56.755Z,100.00
2023-02-26T19:08:24.843Z,100.00
2023-02-26T19:10:52.826Z,100.00
2023-02-26T19:13:21.390Z,100.00
2023-02-26T19:15:51.059Z,100.00
2023-02-26T19:18:20.644Z,100.00
2023-02-26T19:20:48.806Z,100.00
2023-02-26T19:23:16.826Z,100.00
2023-02-26T19:25:45.669Z,100.00
2023-02-26T19:28:14.133Z,100.00
2023-02-26T19:30:42.181Z,100.00
2023-02-26T19:33:10.243Z,100.00
2023-02-26T19:35:38.443Z,100.00
2023-02-26T19:38:06.852Z,100.00
2023-02-26T19:40:34.868Z,100.00
2023-02-26T19:43:02.840Z,100.00
2023-02-26T19:45:31.879Z,100.00
2023-02-26T19:47:59.952Z,100.00
2023-02-26T19:50:28.021Z,100.00
2023-02-26T19:52:58.415Z,100.00
2023-02-26T19:55:26.397Z,100.00
2023-02-26T19:57:54.401Z,100.00
2023-02-26T20:00:22.803Z,100.00
2023-02-26T20:02:51.094Z,100.00
2023-02-26T20:05:20.341Z,100.00
2023-02-26T20:07:51.399Z,100.00
2023-02-26T20:10:23.156Z,100.00
2023-02-26T20:12:51.172Z,100.00
2023-02-26T20:15:19.932Z,100.00
2023-02-26T20:17:48.563Z,100.00
2023-02-26T20:20:16.896Z,100.00
2023-02-26T20:22:44.979Z,100.00
2023-02-26T20:25:14.942Z,100.00
2023-02-26T20:27:43.292Z,100.00
2023-02-26T20:30:12.266Z,100.00
2023-02-26T20:32:41.015Z,100.00
2023-02-26T20:35:09.975Z,100.00
2023-02-26T20:37:38.070Z,100.00
2023-02-26T20:40:07.686Z,100.00
2023-02-26T20:42:36.959Z,100.00
2023-02-26T20:45:08.648Z,100.00
2023-02-26T20:47:36.761Z,100.00
2023-02-26T20:50:05.202Z,100.00
2023-02-26T20:52:33.468Z,100.00
2023-02-26T20:55:01.622Z,100.00
2023-02-26T20:57:32.476Z,100.00
2023-02-26T21:00:00.642Z,100.00
2023-02-26T21:02:28.902Z,100.00
2023-02-26T21:04:56.985Z,100.00
2023-02-26T21:07:25.379Z,100.00
2023-02-26T21:09:55.472Z,100.00
2023-02-26T21:12:23.788Z,100.00
2023-02-26T21:14:52.859Z,100.00
2023-02-26T21:17:21.789Z,100.00
2023-02-26T21:19:50.437Z,100.00
2023-02-26T21:22:19.337Z,100.00
2023-02-26T21:24:48.068Z,100.00
2023-02-26T21:27:16.936Z,100.00
2023-02-26T21:29:45.213Z,100.00
2023-02-26T21:32:13.497Z,100.00
2023-02-26T21:34:41.693Z,100.00
2023-02-26T21:37:11.691Z,100.00
2023-02-26T21:39:40.244Z,100.00
2023-02-26T21:42:11.849Z,100.00
2023-02-26T21:44:40.208Z,100.00
2023-02-26T21:47:08.372Z,100.00
2023-02-26T21:49:37.182Z,100.00
2023-02-26T21:52:07.482Z,100.00
2023-02-26T21:54:36.235Z,100.00
2023-02-26T21:57:04.214Z,100.00
2023-02-26T21:59:32.265Z,100.00
2023-02-26T22:02:00.366Z,100.00
2023-02-26T22:04:28.811Z,100.00
2023-02-26T22:06:57.775Z,100.00
2023-02-26T22:09:25.927Z,100.00
2023-02-26T22:11:53.939Z,100.00
2023-02-26T22:14:22.333Z,100.00
2023-02-26T22:16:50.424Z,100.00
2023-02-26T22:19:18.629Z,100.00
2023-02-26T22:21:46.652Z,100.00
2023-02-26T22:24:15.034Z,100.00
2023-02-26T22:26:44.681Z,100.00
2023-02-26T22:29:12.808Z,100.00
2023-02-26T22:31:40.960Z,100.00
2023-02-26T22:34:09.477Z,100.00
2023-02-26T22:36:37.557Z,100.00
2023-02-26T22:39:06.423Z,100.00
2023-02-26T22:41:36.038Z,100.00
2023-02-26T22:44:05.277Z,100.00
2023-02-26T22:46:34.438Z,100.00
2023-02-26T22:49:03.325Z,100.00
2023-02-26T22:51:33.270Z,100.00
2023-02-26T22:54:01.829Z,100.00
2023-02-26T22:56:30.576Z,100.00
2023-02-26T22:58:58.754Z,100.00
2023-02-26T23:01:26.948Z,100.00
2023-02-26T23:03:54.925Z,100.00
2023-02-26T23:06:23.080Z,100.00
2023-02-26T23:08:51.531Z,100.00
2023-02-26T23:11:20.075Z,100.00
2023-02-26T23:13:48.205Z,100.00
2023-02-26T23:16:16.330Z,100.00
2023-02-26T23:18:48.195Z,100.00
2023-02-26T23:21:17.005Z,100.00
2023-02-26T23:23:45.604Z,100.00
2023-02-26T23:26:14.106Z,100.00
2023-02-26T23:28:42.160Z,100.00
2023-02-26T23:31:10.302Z,100.00
2023-02-26T23:33:38.448Z,100.00
2023-02-26T23:36:07.762Z,100.00
2023-02-26T23:38:36.185Z,100.00
2023-02-26T23:41:04.577Z,100.00
2023-02-26T23:43:33.999Z,100.00
2023-02-26T23:46:02.027Z,100.00
2023-02-26T23:48:30.475Z,100.00
2023-02-26T23:50:58.508Z,100.00
2023-02-26T23:53:26.597Z,100.00
2023-02-26T23:55:59.017Z,100.00
2023-02-26T23:58:28.631Z,100.00
